sensor_id;sensor_type;location;lat;lon;timestamp;P1;durP1;ratioP1;P2;durP2;ratioP2
8466;SDS011;4270;48.148;11.648;2024-03-23T00:53:13;5.00;;;3.07;;
8466;SDS011;4270;48.148;11.648;2024-03-23T00:55:39;4.23;;;2.90;;
8466;SDS011;4270;48.148;11.648;2024-03-23T00:58:05;4.47;;;2.97;;
8466;SDS011;4270;48.148;11.648;2024-03-23T01:00:30;3.60;;;3.20;;
8466;SDS011;4270;48.148;11.648;2024-03-23T01:02:55;5.70;;;3.00;;
8466;SDS011;4270;48.148;11.648;2024-03-23T01:05:20;3.50;;;3.20;;
8466;SDS011;4270;48.148;11.648;2024-03-23T01:07:45;4.07;;;3.20;;
8466;SDS011;4270;48.148;11.648;2024-03-23T01:10:11;4.03;;;3.40;;
8466;SDS011;4270;48.148;11.648;2024-03-23T01:12:36;4.60;;;3.00;;
8466;SDS011;4270;48.148;11.648;2024-03-23T01:15:01;3.70;;;3.07;;
8466;SDS011;4270;48.148;11.648;2024-03-23T01:17:26;3.33;;;2.60;;
8466;SDS011;4270;48.148;11.648;2024-03-23T01:19:51;5.70;;;3.20;;
8466;SDS011;4270;48.148;11.648;2024-03-23T01:22:17;5.50;;;3.30;;
8466;SDS011;4270;48.148;11.648;2024-03-23T01:24:42;4.47;;;3.30;;
8466;SDS011;4270;48.148;11.648;2024-03-23T01:27:08;5.33;;;3.20;;
8466;SDS011;4270;48.148;11.648;2024-03-23T01:29:33;6.43;;;3.03;;
8466;SDS011;4270;48.148;11.648;2024-03-23T01:31:58;4.30;;;2.70;;
8466;SDS011;4270;48.148;11.648;2024-03-23T01:34:23;4.10;;;2.90;;
8466;SDS011;4270;48.148;11.648;2024-03-23T01:36:50;6.53;;;3.20;;
8466;SDS011;4270;48.148;11.648;2024-03-23T01:39:15;3.90;;;3.00;;
8466;SDS011;4270;48.148;11.648;2024-03-23T01:41:40;4.10;;;2.80;;
8466;SDS011;4270;48.148;11.648;2024-03-23T01:44:07;4.67;;;2.30;;
8466;SDS011;4270;48.148;11.648;2024-03-23T01:46:33;3.10;;;2.50;;
8466;SDS011;4270;48.148;11.648;2024-03-23T01:48:58;4.40;;;2.90;;
8466;SDS011;4270;48.148;11.648;2024-03-23T01:51:23;3.77;;;3.20;;
8466;SDS011;4270;48.148;11.648;2024-03-23T01:53:49;3.40;;;3.00;;
8466;SDS011;4270;48.148;11.648;2024-03-23T01:56:15;2.93;;;2.63;;
8466;SDS011;4270;48.148;11.648;2024-03-23T01:58:40;5.77;;;2.60;;
8466;SDS011;4270;48.148;11.648;2024-03-23T02:01:05;4.10;;;2.67;;
8466;SDS011;4270;48.148;11.648;2024-03-23T02:03:31;3.20;;;2.40;;
8466;SDS011;4270;48.148;11.648;2024-03-23T02:05:56;3.60;;;3.03;;
8466;SDS011;4270;48.148;11.648;2024-03-23T02:08:22;3.30;;;2.53;;
8466;SDS011;4270;48.148;11.648;2024-03-23T02:10:48;3.67;;;3.00;;
8466;SDS011;4270;48.148;11.648;2024-03-23T02:13:14;5.70;;;2.90;;
8466;SDS011;4270;48.148;11.648;2024-03-23T02:15:39;3.33;;;2.63;;
8466;SDS011;4270;48.148;11.648;2024-03-23T02:18:05;3.87;;;2.90;;
8466;SDS011;4270;48.148;11.648;2024-03-23T02:20:30;3.77;;;2.80;;
8466;SDS011;4270;48.148;11.648;2024-03-23T02:22:55;4.07;;;2.43;;
8466;SDS011;4270;48.148;11.648;2024-03-23T02:25:20;4.43;;;2.70;;
8466;SDS011;4270;48.148;11.648;2024-03-23T02:27:45;3.93;;;2.90;;
8466;SDS011;4270;48.148;11.648;2024-03-23T02:30:10;2.80;;;2.30;;
8466;SDS011;4270;48.148;11.648;2024-03-23T02:32:36;4.93;;;2.47;;
8466;SDS011;4270;48.148;11.648;2024-03-23T02:35:01;3.00;;;2.43;;
8466;SDS011;4270;48.148;11.648;2024-03-23T02:37:26;4.67;;;3.17;;
8466;SDS011;4270;48.148;11.648;2024-03-23T02:39:51;3.27;;;2.50;;
8466;SDS011;4270;48.148;11.648;2024-03-23T02:42:17;5.40;;;3.10;;
8466;SDS011;4270;48.148;11.648;2024-03-23T02:44:42;3.20;;;2.83;;
8466;SDS011;4270;48.148;11.648;2024-03-23T02:47:08;3.60;;;2.47;;
8466;SDS011;4270;48.148;11.648;2024-03-23T02:49:33;3.73;;;2.63;;
8466;SDS011;4270;48.148;11.648;2024-03-23T02:51:58;5.43;;;2.57;;
8466;SDS011;4270;48.148;11.648;2024-03-23T02:54:23;5.73;;;2.63;;
8466;SDS011;4270;48.148;11.648;2024-03-23T02:56:48;4.13;;;2.87;;
8466;SDS011;4270;48.148;11.648;2024-03-23T02:59:13;4.70;;;2.53;;
8466;SDS011;4270;48.148;11.648;2024-03-23T03:01:39;2.90;;;2.60;;
8466;SDS011;4270;48.148;11.648;2024-03-23T03:04:04;2.87;;;2.13;;
8466;SDS011;4270;48.148;11.648;2024-03-23T03:06:30;2.80;;;2.10;;
8466;SDS011;4270;48.148;11.648;2024-03-23T03:08:55;4.53;;;2.60;;
8466;SDS011;4270;48.148;11.648;2024-03-23T03:11:20;3.20;;;2.40;;
8466;SDS011;4270;48.148;11.648;2024-03-23T03:13:46;2.77;;;2.30;;
8466;SDS011;4270;48.148;11.648;2024-03-23T03:16:11;3.23;;;2.30;;
8466;SDS011;4270;48.148;11.648;2024-03-23T03:18:36;3.20;;;2.40;;
8466;SDS011;4270;48.148;11.648;2024-03-23T03:21:02;3.20;;;2.90;;
8466;SDS011;4270;48.148;11.648;2024-03-23T03:23:27;4.43;;;2.57;;
8466;SDS011;4270;48.148;11.648;2024-03-23T03:25:53;2.77;;;2.40;;
8466;SDS011;4270;48.148;11.648;2024-03-23T03:28:18;4.10;;;2.90;;
8466;SDS011;4270;48.148;11.648;2024-03-23T03:30:43;4.07;;;2.90;;
8466;SDS011;4270;48.148;11.648;2024-03-23T03:33:08;7.33;;;2.43;;
8466;SDS011;4270;48.148;11.648;2024-03-23T03:35:33;2.97;;;2.67;;
8466;SDS011;4270;48.148;11.648;2024-03-23T03:37:58;3.53;;;2.50;;
8466;SDS011;4270;48.148;11.648;2024-03-23T03:40:24;4.47;;;2.83;;
8466;SDS011;4270;48.148;11.648;2024-03-23T03:42:50;3.90;;;2.50;;
8466;SDS011;4270;48.148;11.648;2024-03-23T03:45:15;4.10;;;2.97;;
8466;SDS011;4270;48.148;11.648;2024-03-23T03:47:40;4.40;;;2.37;;
8466;SDS011;4270;48.148;11.648;2024-03-23T03:50:05;2.83;;;2.53;;
8466;SDS011;4270;48.148;11.648;2024-03-23T03:52:31;3.57;;;2.80;;
8466;SDS011;4270;48.148;11.648;2024-03-23T03:55:00;3.13;;;2.43;;
8466;SDS011;4270;48.148;11.648;2024-03-23T03:57:26;4.60;;;2.73;;
8466;SDS011;4270;48.148;11.648;2024-03-23T03:59:51;2.63;;;2.03;;
8466;SDS011;4270;48.148;11.648;2024-03-23T04:02:16;3.37;;;2.53;;
8466;SDS011;4270;48.148;11.648;2024-03-23T04:04:41;2.70;;;2.40;;
8466;SDS011;4270;48.148;11.648;2024-03-23T04:07:06;3.30;;;2.70;;
8466;SDS011;4270;48.148;11.648;2024-03-23T04:09:32;3.20;;;2.40;;
8466;SDS011;4270;48.148;11.648;2024-03-23T04:11:57;3.00;;;2.30;;
8466;SDS011;4270;48.148;11.648;2024-03-23T04:14:22;3.60;;;2.73;;
8466;SDS011;4270;48.148;11.648;2024-03-23T04:16:47;2.37;;;2.10;;
8466;SDS011;4270;48.148;11.648;2024-03-23T04:19:12;2.80;;;2.13;;
8466;SDS011;4270;48.148;11.648;2024-03-23T04:21:37;5.23;;;2.17;;
8466;SDS011;4270;48.148;11.648;2024-03-23T04:24:03;3.70;;;2.50;;
8466;SDS011;4270;48.148;11.648;2024-03-23T04:26:28;2.83;;;2.40;;
8466;SDS011;4270;48.148;11.648;2024-03-23T04:28:54;2.80;;;2.30;;
8466;SDS011;4270;48.148;11.648;2024-03-23T04:31:19;2.93;;;2.27;;
8466;SDS011;4270;48.148;11.648;2024-03-23T04:33:44;3.23;;;2.20;;
8466;SDS011;4270;48.148;11.648;2024-03-23T04:36:09;2.80;;;2.10;;
8466;SDS011;4270;48.148;11.648;2024-03-23T04:38:35;3.07;;;1.80;;
8466;SDS011;4270;48.148;11.648;2024-03-23T04:41:00;2.23;;;1.67;;
8466;SDS011;4270;48.148;11.648;2024-03-23T04:43:26;2.77;;;2.00;;
8466;SDS011;4270;48.148;11.648;2024-03-23T04:45:51;2.40;;;1.87;;
8466;SDS011;4270;48.148;11.648;2024-03-23T04:48:19;3.53;;;2.37;;
8466;SDS011;4270;48.148;11.648;2024-03-23T04:50:44;2.50;;;1.80;;
8466;SDS011;4270;48.148;11.648;2024-03-23T04:53:09;2.57;;;2.20;;
8466;SDS011;4270;48.148;11.648;2024-03-23T04:55:34;1.90;;;1.70;;
8466;SDS011;4270;48.148;11.648;2024-03-23T04:58:00;1.97;;;1.60;;
8466;SDS011;4270;48.148;11.648;2024-03-23T05:00:25;3.70;;;2.27;;
8466;SDS011;4270;48.148;11.648;2024-03-23T05:02:51;5.37;;;2.07;;
8466;SDS011;4270;48.148;11.648;2024-03-23T05:05:17;2.00;;;1.70;;
8466;SDS011;4270;48.148;11.648;2024-03-23T05:07:43;2.20;;;2.00;;
8466;SDS011;4270;48.148;11.648;2024-03-23T05:10:09;2.67;;;2.47;;
8466;SDS011;4270;48.148;11.648;2024-03-23T05:12:36;2.53;;;2.00;;
8466;SDS011;4270;48.148;11.648;2024-03-23T05:15:01;2.80;;;2.00;;
8466;SDS011;4270;48.148;11.648;2024-03-23T05:17:27;2.60;;;1.93;;
8466;SDS011;4270;48.148;11.648;2024-03-23T05:19:52;3.10;;;2.17;;
8466;SDS011;4270;48.148;11.648;2024-03-23T05:22:17;2.90;;;1.80;;
8466;SDS011;4270;48.148;11.648;2024-03-23T05:24:44;2.40;;;1.83;;
8466;SDS011;4270;48.148;11.648;2024-03-23T05:27:09;3.77;;;2.30;;
8466;SDS011;4270;48.148;11.648;2024-03-23T05:29:34;5.50;;;2.10;;
8466;SDS011;4270;48.148;11.648;2024-03-23T05:31:59;1.90;;;1.70;;
8466;SDS011;4270;48.148;11.648;2024-03-23T05:34:25;5.00;;;1.97;;
8466;SDS011;4270;48.148;11.648;2024-03-23T05:36:50;3.10;;;2.67;;
8466;SDS011;4270;48.148;11.648;2024-03-23T05:39:16;1.87;;;1.77;;
8466;SDS011;4270;48.148;11.648;2024-03-23T05:41:46;1.53;;;1.43;;
8466;SDS011;4270;48.148;11.648;2024-03-23T05:44:12;2.60;;;1.63;;
8466;SDS011;4270;48.148;11.648;2024-03-23T05:46:37;3.20;;;1.63;;
8466;SDS011;4270;48.148;11.648;2024-03-23T05:49:03;2.63;;;1.80;;
8466;SDS011;4270;48.148;11.648;2024-03-23T05:51:28;2.30;;;1.67;;
8466;SDS011;4270;48.148;11.648;2024-03-23T05:53:53;2.40;;;2.17;;
8466;SDS011;4270;48.148;11.648;2024-03-23T05:56:19;1.80;;;1.60;;
8466;SDS011;4270;48.148;11.648;2024-03-23T05:58:45;3.70;;;1.90;;
8466;SDS011;4270;48.148;11.648;2024-03-23T06:01:11;2.87;;;2.13;;
8466;SDS011;4270;48.148;11.648;2024-03-23T06:03:36;2.33;;;1.67;;
8466;SDS011;4270;48.148;11.648;2024-03-23T06:06:01;3.27;;;1.70;;
8466;SDS011;4270;48.148;11.648;2024-03-23T06:08:27;2.70;;;1.70;;
8466;SDS011;4270;48.148;11.648;2024-03-23T06:10:52;3.70;;;1.70;;
8466;SDS011;4270;48.148;11.648;2024-03-23T06:13:17;2.13;;;1.43;;
8466;SDS011;4270;48.148;11.648;2024-03-23T06:15:43;5.63;;;1.70;;
8466;SDS011;4270;48.148;11.648;2024-03-23T06:18:08;2.77;;;1.60;;
8466;SDS011;4270;48.148;11.648;2024-03-23T06:20:33;2.60;;;2.17;;
8466;SDS011;4270;48.148;11.648;2024-03-23T06:22:59;2.30;;;1.80;;
8466;SDS011;4270;48.148;11.648;2024-03-23T06:25:24;1.80;;;1.50;;
8466;SDS011;4270;48.148;11.648;2024-03-23T06:27:49;2.07;;;1.60;;
8466;SDS011;4270;48.148;11.648;2024-03-23T06:30:14;1.60;;;1.50;;
8466;SDS011;4270;48.148;11.648;2024-03-23T06:32:39;1.70;;;1.60;;
8466;SDS011;4270;48.148;11.648;2024-03-23T06:35:06;3.27;;;2.00;;
8466;SDS011;4270;48.148;11.648;2024-03-23T06:37:35;1.80;;;1.57;;
8466;SDS011;4270;48.148;11.648;2024-03-23T06:40:01;2.03;;;1.40;;
8466;SDS011;4270;48.148;11.648;2024-03-23T06:42:26;2.30;;;1.50;;
8466;SDS011;4270;48.148;11.648;2024-03-23T06:44:51;2.23;;;1.60;;
8466;SDS011;4270;48.148;11.648;2024-03-23T06:47:16;1.93;;;1.20;;
8466;SDS011;4270;48.148;11.648;2024-03-23T06:49:41;1.90;;;1.50;;
8466;SDS011;4270;48.148;11.648;2024-03-23T06:52:07;2.13;;;1.50;;
8466;SDS011;4270;48.148;11.648;2024-03-23T06:54:32;3.47;;;2.20;;
8466;SDS011;4270;48.148;11.648;2024-03-23T06:56:57;2.27;;;1.47;;
8466;SDS011;4270;48.148;11.648;2024-03-23T06:59:22;3.10;;;1.60;;
8466;SDS011;4270;48.148;11.648;2024-03-23T07:01:47;2.17;;;1.50;;
8466;SDS011;4270;48.148;11.648;2024-03-23T07:04:12;2.50;;;1.43;;
8466;SDS011;4270;48.148;11.648;2024-03-23T07:06:44;2.90;;;1.30;;
8466;SDS011;4270;48.148;11.648;2024-03-23T07:09:10;2.23;;;1.53;;
8466;SDS011;4270;48.148;11.648;2024-03-23T07:11:35;2.87;;;1.67;;
8466;SDS011;4270;48.148;11.648;2024-03-23T07:14:00;1.50;;;1.30;;
8466;SDS011;4270;48.148;11.648;2024-03-23T07:16:29;3.07;;;1.63;;
8466;SDS011;4270;48.148;11.648;2024-03-23T07:18:54;1.77;;;1.50;;
8466;SDS011;4270;48.148;11.648;2024-03-23T07:21:20;2.00;;;1.73;;
8466;SDS011;4270;48.148;11.648;2024-03-23T07:23:45;3.80;;;1.70;;
8466;SDS011;4270;48.148;11.648;2024-03-23T07:26:11;3.50;;;1.63;;
8466;SDS011;4270;48.148;11.648;2024-03-23T07:28:36;3.13;;;1.33;;
8466;SDS011;4270;48.148;11.648;2024-03-23T07:31:10;3.03;;;1.70;;
8466;SDS011;4270;48.148;11.648;2024-03-23T07:33:36;5.43;;;1.70;;
8466;SDS011;4270;48.148;11.648;2024-03-23T07:36:02;3.40;;;1.77;;
8466;SDS011;4270;48.148;11.648;2024-03-23T07:38:28;5.03;;;1.93;;
8466;SDS011;4270;48.148;11.648;2024-03-23T07:41:06;9.37;;;1.70;;
8466;SDS011;4270;48.148;11.648;2024-03-23T07:43:31;3.33;;;1.57;;
8466;SDS011;4270;48.148;11.648;2024-03-23T07:45:57;1.70;;;1.60;;
8466;SDS011;4270;48.148;11.648;2024-03-23T07:48:22;3.70;;;1.90;;
8466;SDS011;4270;48.148;11.648;2024-03-23T07:53:25;4.07;;;2.17;;
8466;SDS011;4270;48.148;11.648;2024-03-23T07:55:54;2.90;;;1.80;;
8466;SDS011;4270;48.148;11.648;2024-03-23T07:58:19;4.20;;;2.37;;
8466;SDS011;4270;48.148;11.648;2024-03-23T08:00:44;1.57;;;1.47;;
8466;SDS011;4270;48.148;11.648;2024-03-23T08:03:10;2.47;;;1.77;;
8466;SDS011;4270;48.148;11.648;2024-03-23T08:05:35;2.50;;;2.03;;
8466;SDS011;4270;48.148;11.648;2024-03-23T08:08:00;2.97;;;1.67;;
8466;SDS011;4270;48.148;11.648;2024-03-23T08:10:25;2.50;;;1.90;;
8466;SDS011;4270;48.148;11.648;2024-03-23T08:12:51;3.43;;;2.20;;
8466;SDS011;4270;48.148;11.648;2024-03-23T08:15:16;3.43;;;2.30;;
8466;SDS011;4270;48.148;11.648;2024-03-23T08:17:41;4.70;;;2.50;;
8466;SDS011;4270;48.148;11.648;2024-03-23T08:20:06;4.23;;;2.40;;
8466;SDS011;4270;48.148;11.648;2024-03-23T08:22:33;4.00;;;3.10;;
8466;SDS011;4270;48.148;11.648;2024-03-23T08:24:58;3.63;;;2.60;;
8466;SDS011;4270;48.148;11.648;2024-03-23T08:27:23;3.30;;;2.40;;
8466;SDS011;4270;48.148;11.648;2024-03-23T08:29:48;3.60;;;2.90;;
8466;SDS011;4270;48.148;11.648;2024-03-23T08:32:14;3.80;;;2.60;;
8466;SDS011;4270;48.148;11.648;2024-03-23T08:34:39;3.90;;;2.90;;
8466;SDS011;4270;48.148;11.648;2024-03-23T08:37:04;3.97;;;3.07;;
8466;SDS011;4270;48.148;11.648;2024-03-23T08:39:29;3.93;;;1.93;;
8466;SDS011;4270;48.148;11.648;2024-03-23T08:41:54;2.80;;;1.77;;
8466;SDS011;4270;48.148;11.648;2024-03-23T08:44:20;2.13;;;1.90;;
8466;SDS011;4270;48.148;11.648;2024-03-23T08:46:45;2.43;;;2.03;;
8466;SDS011;4270;48.148;11.648;2024-03-23T08:49:10;2.20;;;1.60;;
8466;SDS011;4270;48.148;11.648;2024-03-23T08:51:37;1.77;;;1.67;;
8466;SDS011;4270;48.148;11.648;2024-03-23T08:54:02;2.53;;;1.70;;
8466;SDS011;4270;48.148;11.648;2024-03-23T08:56:27;2.10;;;1.90;;
8466;SDS011;4270;48.148;11.648;2024-03-23T08:58:53;2.50;;;1.80;;
8466;SDS011;4270;48.148;11.648;2024-03-23T09:01:18;3.23;;;2.13;;
8466;SDS011;4270;48.148;11.648;2024-03-23T09:03:43;3.40;;;2.27;;
8466;SDS011;4270;48.148;11.648;2024-03-23T09:08:34;2.70;;;1.80;;
8466;SDS011;4270;48.148;11.648;2024-03-23T09:11:03;2.10;;;1.90;;
8466;SDS011;4270;48.148;11.648;2024-03-23T09:13:28;2.47;;;2.17;;
8466;SDS011;4270;48.148;11.648;2024-03-23T09:15:53;4.13;;;2.60;;
8466;SDS011;4270;48.148;11.648;2024-03-23T09:18:21;2.30;;;1.90;;
8466;SDS011;4270;48.148;11.648;2024-03-23T09:20:46;4.43;;;2.40;;
8466;SDS011;4270;48.148;11.648;2024-03-23T09:23:11;3.27;;;2.40;;
8466;SDS011;4270;48.148;11.648;2024-03-23T09:25:37;4.73;;;3.77;;
8466;SDS011;4270;48.148;11.648;2024-03-23T09:28:03;2.90;;;2.33;;
8466;SDS011;4270;48.148;11.648;2024-03-23T09:30:28;3.40;;;2.70;;
8466;SDS011;4270;48.148;11.648;2024-03-23T09:32:53;3.73;;;2.73;;
8466;SDS011;4270;48.148;11.648;2024-03-23T09:35:19;5.03;;;2.20;;
8466;SDS011;4270;48.148;11.648;2024-03-23T09:37:44;3.63;;;2.40;;
8466;SDS011;4270;48.148;11.648;2024-03-23T09:40:10;3.43;;;2.73;;
8466;SDS011;4270;48.148;11.648;2024-03-23T09:42:36;6.47;;;3.00;;
8466;SDS011;4270;48.148;11.648;2024-03-23T09:45:02;3.30;;;2.70;;
8466;SDS011;4270;48.148;11.648;2024-03-23T09:47:27;3.27;;;2.93;;
8466;SDS011;4270;48.148;11.648;2024-03-23T09:49:53;3.03;;;2.73;;
8466;SDS011;4270;48.148;11.648;2024-03-23T09:52:18;2.30;;;1.97;;
8466;SDS011;4270;48.148;11.648;2024-03-23T09:54:43;4.47;;;3.03;;
8466;SDS011;4270;48.148;11.648;2024-03-23T09:57:09;2.70;;;1.63;;
8466;SDS011;4270;48.148;11.648;2024-03-23T09:59:34;2.97;;;1.77;;
8466;SDS011;4270;48.148;11.648;2024-03-23T10:02:00;1.90;;;1.30;;
8466;SDS011;4270;48.148;11.648;2024-03-23T10:04:38;1.40;;;1.07;;
8466;SDS011;4270;48.148;11.648;2024-03-23T10:07:11;2.77;;;1.40;;
8466;SDS011;4270;48.148;11.648;2024-03-23T10:09:36;2.37;;;1.53;;
8466;SDS011;4270;48.148;11.648;2024-03-23T10:12:08;2.33;;;1.37;;
8466;SDS011;4270;48.148;11.648;2024-03-23T10:14:34;2.37;;;1.27;;
8466;SDS011;4270;48.148;11.648;2024-03-23T10:17:11;1.50;;;0.90;;
8466;SDS011;4270;48.148;11.648;2024-03-23T10:19:38;1.67;;;1.07;;
8466;SDS011;4270;48.148;11.648;2024-03-23T10:22:04;1.30;;;0.90;;
8466;SDS011;4270;48.148;11.648;2024-03-23T10:24:29;1.30;;;0.93;;
8466;SDS011;4270;48.148;11.648;2024-03-23T10:26:57;1.13;;;0.80;;
8466;SDS011;4270;48.148;11.648;2024-03-23T10:29:23;1.47;;;1.30;;
8466;SDS011;4270;48.148;11.648;2024-03-23T10:31:48;3.47;;;0.90;;
8466;SDS011;4270;48.148;11.648;2024-03-23T10:34:14;0.87;;;0.70;;
8466;SDS011;4270;48.148;11.648;2024-03-23T10:36:40;1.70;;;1.43;;
8466;SDS011;4270;48.148;11.648;2024-03-23T10:39:06;2.60;;;1.67;;
8466;SDS011;4270;48.148;11.648;2024-03-23T10:41:32;2.43;;;1.07;;
8466;SDS011;4270;48.148;11.648;2024-03-23T10:43:57;1.37;;;1.17;;
8466;SDS011;4270;48.148;11.648;2024-03-23T10:46:23;2.73;;;2.10;;
8466;SDS011;4270;48.148;11.648;2024-03-23T10:48:48;2.10;;;1.17;;
8466;SDS011;4270;48.148;11.648;2024-03-23T10:51:14;1.50;;;1.40;;
8466;SDS011;4270;48.148;11.648;2024-03-23T10:53:39;2.27;;;1.30;;
8466;SDS011;4270;48.148;11.648;2024-03-23T10:56:05;1.13;;;1.03;;
8466;SDS011;4270;48.148;11.648;2024-03-23T10:58:37;0.90;;;0.70;;
8466;SDS011;4270;48.148;11.648;2024-03-23T11:01:03;1.40;;;0.87;;
8466;SDS011;4270;48.148;11.648;2024-03-23T11:03:35;0.97;;;0.77;;
8466;SDS011;4270;48.148;11.648;2024-03-23T11:06:04;1.20;;;0.90;;
8466;SDS011;4270;48.148;11.648;2024-03-23T11:08:33;1.87;;;1.17;;
8466;SDS011;4270;48.148;11.648;2024-03-23T11:11:17;2.17;;;1.13;;
8466;SDS011;4270;48.148;11.648;2024-03-23T11:13:44;1.07;;;0.97;;
8466;SDS011;4270;48.148;11.648;2024-03-23T11:16:43;0.93;;;0.77;;
8466;SDS011;4270;48.148;11.648;2024-03-23T11:21:52;1.33;;;0.80;;
8466;SDS011;4270;48.148;11.648;2024-03-23T11:24:18;1.30;;;0.73;;
8466;SDS011;4270;48.148;11.648;2024-03-23T11:26:44;1.60;;;0.90;;
8466;SDS011;4270;48.148;11.648;2024-03-23T11:29:09;0.87;;;0.70;;
8466;SDS011;4270;48.148;11.648;2024-03-23T11:31:37;1.67;;;0.90;;
8466;SDS011;4270;48.148;11.648;2024-03-23T11:34:03;1.17;;;0.70;;
8466;SDS011;4270;48.148;11.648;2024-03-23T11:36:29;1.30;;;1.00;;
8466;SDS011;4270;48.148;11.648;2024-03-23T11:38:54;1.50;;;1.10;;
8466;SDS011;4270;48.148;11.648;2024-03-23T11:41:19;2.73;;;1.13;;
8466;SDS011;4270;48.148;11.648;2024-03-23T11:43:44;1.10;;;0.80;;
8466;SDS011;4270;48.148;11.648;2024-03-23T11:46:10;1.30;;;0.87;;
8466;SDS011;4270;48.148;11.648;2024-03-23T11:48:35;1.50;;;1.10;;
8466;SDS011;4270;48.148;11.648;2024-03-23T11:51:00;1.00;;;0.80;;
8466;SDS011;4270;48.148;11.648;2024-03-23T11:53:26;2.13;;;0.80;;
8466;SDS011;4270;48.148;11.648;2024-03-23T11:55:55;2.63;;;1.00;;
8466;SDS011;4270;48.148;11.648;2024-03-23T11:58:22;1.40;;;1.20;;
8466;SDS011;4270;48.148;11.648;2024-03-23T12:01:00;3.90;;;1.30;;
8466;SDS011;4270;48.148;11.648;2024-03-23T12:03:27;2.93;;;1.20;;
8466;SDS011;4270;48.148;11.648;2024-03-23T12:05:57;1.63;;;1.10;;
8466;SDS011;4270;48.148;11.648;2024-03-23T12:08:24;0.87;;;0.87;;
8466;SDS011;4270;48.148;11.648;2024-03-23T12:10:50;1.27;;;1.03;;
8466;SDS011;4270;48.148;11.648;2024-03-23T12:13:19;2.90;;;1.47;;
8466;SDS011;4270;48.148;11.648;2024-03-23T12:15:45;2.97;;;2.10;;
8466;SDS011;4270;48.148;11.648;2024-03-23T12:18:11;5.40;;;2.27;;
8466;SDS011;4270;48.148;11.648;2024-03-23T12:20:37;3.00;;;1.40;;
8466;SDS011;4270;48.148;11.648;2024-03-23T12:23:09;5.23;;;3.03;;
8466;SDS011;4270;48.148;11.648;2024-03-23T12:25:35;3.77;;;2.03;;
8466;SDS011;4270;48.148;11.648;2024-03-23T12:28:00;2.70;;;1.97;;
8466;SDS011;4270;48.148;11.648;2024-03-23T12:30:25;2.63;;;1.77;;
8466;SDS011;4270;48.148;11.648;2024-03-23T12:32:51;5.30;;;2.57;;
8466;SDS011;4270;48.148;11.648;2024-03-23T12:35:16;6.17;;;4.20;;
8466;SDS011;4270;48.148;11.648;2024-03-23T12:37:41;11.70;;;6.00;;
8466;SDS011;4270;48.148;11.648;2024-03-23T12:40:06;8.37;;;4.20;;
8466;SDS011;4270;48.148;11.648;2024-03-23T12:42:32;10.83;;;3.63;;
8466;SDS011;4270;48.148;11.648;2024-03-23T12:44:57;6.70;;;3.20;;
8466;SDS011;4270;48.148;11.648;2024-03-23T12:47:22;5.67;;;3.30;;
8466;SDS011;4270;48.148;11.648;2024-03-23T12:49:48;12.50;;;5.87;;
8466;SDS011;4270;48.148;11.648;2024-03-23T12:52:14;5.33;;;3.80;;
8466;SDS011;4270;48.148;11.648;2024-03-23T12:54:40;8.20;;;3.20;;
8466;SDS011;4270;48.148;11.648;2024-03-23T12:57:05;8.50;;;3.90;;
8466;SDS011;4270;48.148;11.648;2024-03-23T12:59:30;8.57;;;4.67;;
8466;SDS011;4270;48.148;11.648;2024-03-23T13:01:55;8.67;;;5.27;;
8466;SDS011;4270;48.148;11.648;2024-03-23T13:04:21;9.90;;;3.90;;
8466;SDS011;4270;48.148;11.648;2024-03-23T13:06:46;7.33;;;3.13;;
8466;SDS011;4270;48.148;11.648;2024-03-23T13:09:11;8.17;;;4.37;;
8466;SDS011;4270;48.148;11.648;2024-03-23T13:11:36;6.50;;;4.03;;
8466;SDS011;4270;48.148;11.648;2024-03-23T13:14:01;7.77;;;3.80;;
8466;SDS011;4270;48.148;11.648;2024-03-23T13:16:29;8.47;;;5.00;;
8466;SDS011;4270;48.148;11.648;2024-03-23T13:18:54;3.80;;;2.67;;
8466;SDS011;4270;48.148;11.648;2024-03-23T13:21:19;3.80;;;2.40;;
8466;SDS011;4270;48.148;11.648;2024-03-23T13:23:48;4.60;;;2.43;;
8466;SDS011;4270;48.148;11.648;2024-03-23T13:26:15;4.67;;;2.13;;
8466;SDS011;4270;48.148;11.648;2024-03-23T13:28:40;3.40;;;2.10;;
8466;SDS011;4270;48.148;11.648;2024-03-23T13:31:06;4.10;;;2.50;;
8466;SDS011;4270;48.148;11.648;2024-03-23T13:33:31;5.43;;;1.90;;
8466;SDS011;4270;48.148;11.648;2024-03-23T13:35:59;2.60;;;1.87;;
8466;SDS011;4270;48.148;11.648;2024-03-23T13:38:25;4.80;;;2.00;;
8466;SDS011;4270;48.148;11.648;2024-03-23T13:43:19;4.63;;;2.10;;
8466;SDS011;4270;48.148;11.648;2024-03-23T13:45:44;2.67;;;1.70;;
8466;SDS011;4270;48.148;11.648;2024-03-23T13:48:10;3.30;;;1.70;;
8466;SDS011;4270;48.148;11.648;2024-03-23T13:50:35;5.50;;;2.30;;
8466;SDS011;4270;48.148;11.648;2024-03-23T13:53:00;3.43;;;2.13;;
8466;SDS011;4270;48.148;11.648;2024-03-23T13:55:26;5.53;;;2.70;;
8466;SDS011;4270;48.148;11.648;2024-03-23T13:57:51;7.77;;;2.27;;
8466;SDS011;4270;48.148;11.648;2024-03-23T14:00:16;4.90;;;2.17;;
8466;SDS011;4270;48.148;11.648;2024-03-23T14:02:43;3.07;;;2.03;;
8466;SDS011;4270;48.148;11.648;2024-03-23T14:05:08;4.33;;;2.60;;
8466;SDS011;4270;48.148;11.648;2024-03-23T14:07:34;4.57;;;2.67;;
8466;SDS011;4270;48.148;11.648;2024-03-23T14:10:02;3.67;;;2.53;;
8466;SDS011;4270;48.148;11.648;2024-03-23T14:12:27;4.83;;;3.10;;
8466;SDS011;4270;48.148;11.648;2024-03-23T14:14:52;8.33;;;3.30;;
8466;SDS011;4270;48.148;11.648;2024-03-23T14:17:18;4.73;;;2.87;;
8466;SDS011;4270;48.148;11.648;2024-03-23T14:19:44;5.67;;;3.20;;
8466;SDS011;4270;48.148;11.648;2024-03-23T14:22:09;4.47;;;2.90;;
8466;SDS011;4270;48.148;11.648;2024-03-23T14:24:34;5.50;;;2.57;;
8466;SDS011;4270;48.148;11.648;2024-03-23T14:27:00;4.80;;;3.30;;
8466;SDS011;4270;48.148;11.648;2024-03-23T14:29:29;5.83;;;3.40;;
8466;SDS011;4270;48.148;11.648;2024-03-23T14:31:55;6.17;;;3.60;;
8466;SDS011;4270;48.148;11.648;2024-03-23T14:34:20;5.10;;;2.77;;
8466;SDS011;4270;48.148;11.648;2024-03-23T14:36:45;5.77;;;3.03;;
8466;SDS011;4270;48.148;11.648;2024-03-23T14:39:10;6.77;;;3.67;;
8466;SDS011;4270;48.148;11.648;2024-03-23T14:41:37;4.20;;;2.83;;
8466;SDS011;4270;48.148;11.648;2024-03-23T14:44:03;7.10;;;3.20;;
8466;SDS011;4270;48.148;11.648;2024-03-23T14:46:28;7.07;;;2.57;;
8466;SDS011;4270;48.148;11.648;2024-03-23T14:48:53;4.20;;;2.50;;
8466;SDS011;4270;48.148;11.648;2024-03-23T14:51:19;3.47;;;1.67;;
8466;SDS011;4270;48.148;11.648;2024-03-23T14:53:47;4.33;;;1.60;;
8466;SDS011;4270;48.148;11.648;2024-03-23T14:56:13;4.90;;;1.80;;
8466;SDS011;4270;48.148;11.648;2024-03-23T14:58:40;7.10;;;1.93;;
8466;SDS011;4270;48.148;11.648;2024-03-23T15:01:06;3.13;;;1.43;;
8466;SDS011;4270;48.148;11.648;2024-03-23T15:03:35;3.83;;;1.60;;
8466;SDS011;4270;48.148;11.648;2024-03-23T15:06:00;1.30;;;1.00;;
8466;SDS011;4270;48.148;11.648;2024-03-23T15:08:26;8.63;;;1.70;;
8466;SDS011;4270;48.148;11.648;2024-03-23T15:10:58;3.87;;;1.53;;
8466;SDS011;4270;48.148;11.648;2024-03-23T15:13:23;3.67;;;1.50;;
8466;SDS011;4270;48.148;11.648;2024-03-23T15:15:49;5.50;;;2.00;;
8466;SDS011;4270;48.148;11.648;2024-03-23T15:18:14;3.30;;;1.60;;
8466;SDS011;4270;48.148;11.648;2024-03-23T15:20:41;4.20;;;1.33;;
8466;SDS011;4270;48.148;11.648;2024-03-23T15:23:06;3.40;;;1.60;;
8466;SDS011;4270;48.148;11.648;2024-03-23T15:25:31;3.50;;;1.73;;
8466;SDS011;4270;48.148;11.648;2024-03-23T15:27:57;4.60;;;1.90;;
8466;SDS011;4270;48.148;11.648;2024-03-23T15:30:23;5.07;;;1.80;;
8466;SDS011;4270;48.148;11.648;2024-03-23T15:32:48;2.40;;;1.83;;
8466;SDS011;4270;48.148;11.648;2024-03-23T15:35:13;3.87;;;2.10;;
8466;SDS011;4270;48.148;11.648;2024-03-23T15:37:38;6.90;;;1.77;;
8466;SDS011;4270;48.148;11.648;2024-03-23T15:40:05;4.17;;;1.67;;
8466;SDS011;4270;48.148;11.648;2024-03-23T15:42:30;6.03;;;1.87;;
8466;SDS011;4270;48.148;11.648;2024-03-23T15:44:55;4.50;;;2.43;;
8466;SDS011;4270;48.148;11.648;2024-03-23T15:47:21;3.63;;;1.60;;
8466;SDS011;4270;48.148;11.648;2024-03-23T15:49:46;5.13;;;2.20;;
8466;SDS011;4270;48.148;11.648;2024-03-23T15:52:11;2.20;;;1.77;;
8466;SDS011;4270;48.148;11.648;2024-03-23T15:54:36;4.90;;;2.30;;